sensor_id;sensor_type;location;lat;lon;timestamp;P1;durP1;ratioP1;P2;durP2;ratioP2
8317;SDS011;4196;48.926;8.964;2022-11-21T00:01:27;4.57;;;1.90;;
8317;SDS011;4196;48.926;8.964;2022-11-21T00:04:14;9.13;;;4.17;;
8317;SDS011;4196;48.926;8.964;2022-11-21T00:07:00;7.60;;;2.50;;
8317;SDS011;4196;48.926;8.964;2022-11-21T00:09:47;0.60;;;0.60;;
8317;SDS011;4196;48.926;8.964;2022-11-21T00:12:33;0.80;;;0.63;;
8317;SDS011;4196;48.926;8.964;2022-11-21T00:15:20;0.60;;;0.60;;
8317;SDS011;4196;48.926;8.964;2022-11-21T00:18:06;0.20;;;0.20;;
8317;SDS011;4196;48.926;8.964;2022-11-21T00:20:53;0.53;;;0.53;;
8317;SDS011;4196;48.926;8.964;2022-11-21T00:23:39;0.30;;;0.30;;
8317;SDS011;4196;48.926;8.964;2022-11-21T00:26:25;0.73;;;0.73;;
8317;SDS011;4196;48.926;8.964;2022-11-21T00:29:12;0.90;;;0.70;;
8317;SDS011;4196;48.926;8.964;2022-11-21T00:31:58;1.00;;;0.50;;
8317;SDS011;4196;48.926;8.964;2022-11-21T00:34:44;0.60;;;0.60;;
8317;SDS011;4196;48.926;8.964;2022-11-21T00:37:31;1.93;;;0.73;;
8317;SDS011;4196;48.926;8.964;2022-11-21T00:40:18;0.80;;;0.77;;
8317;SDS011;4196;48.926;8.964;2022-11-21T00:43:05;0.70;;;0.70;;
8317;SDS011;4196;48.926;8.964;2022-11-21T00:45:51;3.23;;;0.77;;
8317;SDS011;4196;48.926;8.964;2022-11-21T00:48:37;0.70;;;0.70;;
8317;SDS011;4196;48.926;8.964;2022-11-21T00:51:24;4.57;;;1.00;;
8317;SDS011;4196;48.926;8.964;2022-11-21T00:54:10;2.43;;;1.43;;
8317;SDS011;4196;48.926;8.964;2022-11-21T00:56:56;1.30;;;1.20;;
8317;SDS011;4196;48.926;8.964;2022-11-21T00:59:42;1.70;;;0.87;;
8317;SDS011;4196;48.926;8.964;2022-11-21T01:02:30;2.00;;;1.13;;
8317;SDS011;4196;48.926;8.964;2022-11-21T01:05:17;2.53;;;1.50;;
8317;SDS011;4196;48.926;8.964;2022-11-21T01:08:04;4.67;;;1.17;;
8317;SDS011;4196;48.926;8.964;2022-11-21T01:10:50;4.40;;;1.30;;
8317;SDS011;4196;48.926;8.964;2022-11-21T01:13:37;2.83;;;1.20;;
8317;SDS011;4196;48.926;8.964;2022-11-21T01:16:25;1.53;;;1.40;;
8317;SDS011;4196;48.926;8.964;2022-11-21T01:19:12;2.73;;;1.00;;
8317;SDS011;4196;48.926;8.964;2022-11-21T01:21:59;3.93;;;1.20;;
8317;SDS011;4196;48.926;8.964;2022-11-21T01:24:45;3.90;;;1.63;;
8317;SDS011;4196;48.926;8.964;2022-11-21T01:27:32;2.00;;;1.70;;
8317;SDS011;4196;48.926;8.964;2022-11-21T01:30:18;2.00;;;1.23;;
8317;SDS011;4196;48.926;8.964;2022-11-21T01:33:05;4.23;;;1.17;;
8317;SDS011;4196;48.926;8.964;2022-11-21T01:35:51;1.23;;;0.70;;
8317;SDS011;4196;48.926;8.964;2022-11-21T01:38:38;1.43;;;0.80;;
8317;SDS011;4196;48.926;8.964;2022-11-21T01:41:30;1.47;;;1.10;;
8317;SDS011;4196;48.926;8.964;2022-11-21T01:44:20;1.43;;;1.30;;
8317;SDS011;4196;48.926;8.964;2022-11-21T01:47:06;2.63;;;0.83;;
8317;SDS011;4196;48.926;8.964;2022-11-21T01:49:52;1.43;;;0.87;;
8317;SDS011;4196;48.926;8.964;2022-11-21T01:52:39;2.63;;;0.63;;
8317;SDS011;4196;48.926;8.964;2022-11-21T01:55:26;1.60;;;0.90;;
8317;SDS011;4196;48.926;8.964;2022-11-21T01:58:12;0.50;;;0.50;;
8317;SDS011;4196;48.926;8.964;2022-11-21T02:00:58;2.30;;;0.57;;
8317;SDS011;4196;48.926;8.964;2022-11-21T02:03:45;0.60;;;0.60;;
8317;SDS011;4196;48.926;8.964;2022-11-21T02:06:33;0.63;;;0.47;;
8317;SDS011;4196;48.926;8.964;2022-11-21T02:09:22;0.90;;;0.50;;
8317;SDS011;4196;48.926;8.964;2022-11-21T02:12:14;0.47;;;0.30;;
8317;SDS011;4196;48.926;8.964;2022-11-21T02:15:16;0.57;;;0.50;;
8317;SDS011;4196;48.926;8.964;2022-11-21T02:18:04;1.03;;;0.50;;
8317;SDS011;4196;48.926;8.964;2022-11-21T02:20:57;1.63;;;0.60;;
8317;SDS011;4196;48.926;8.964;2022-11-21T02:24:03;1.23;;;0.50;;
8317;SDS011;4196;48.926;8.964;2022-11-21T02:26:53;0.30;;;0.30;;
8317;SDS011;4196;48.926;8.964;2022-11-21T02:29:40;0.70;;;0.30;;
8317;SDS011;4196;48.926;8.964;2022-11-21T02:32:34;0.43;;;0.43;;
8317;SDS011;4196;48.926;8.964;2022-11-21T02:35:24;0.40;;;0.40;;
8317;SDS011;4196;48.926;8.964;2022-11-21T02:38:18;1.03;;;0.33;;
8317;SDS011;4196;48.926;8.964;2022-11-21T02:41:11;0.27;;;0.27;;
8317;SDS011;4196;48.926;8.964;2022-11-21T02:44:17;0.27;;;0.20;;
8317;SDS011;4196;48.926;8.964;2022-11-21T02:47:09;0.80;;;0.40;;
8317;SDS011;4196;48.926;8.964;2022-11-21T02:49:56;0.20;;;0.20;;
8317;SDS011;4196;48.926;8.964;2022-11-21T02:52:48;0.30;;;0.30;;
8317;SDS011;4196;48.926;8.964;2022-11-21T02:55:35;0.40;;;0.40;;
8317;SDS011;4196;48.926;8.964;2022-11-21T02:58:21;0.40;;;0.40;;
8317;SDS011;4196;48.926;8.964;2022-11-21T03:01:08;0.33;;;0.30;;
8317;SDS011;4196;48.926;8.964;2022-11-21T03:03:54;0.40;;;0.40;;
8317;SDS011;4196;48.926;8.964;2022-11-21T03:06:40;0.10;;;0.10;;
8317;SDS011;4196;48.926;8.964;2022-11-21T03:09:27;0.20;;;0.20;;
8317;SDS011;4196;48.926;8.964;2022-11-21T03:12:13;0.17;;;0.17;;
8317;SDS011;4196;48.926;8.964;2022-11-21T03:15:00;0.33;;;0.27;;
8317;SDS011;4196;48.926;8.964;2022-11-21T03:17:46;0.37;;;0.37;;
8317;SDS011;4196;48.926;8.964;2022-11-21T03:20:33;0.40;;;0.40;;
8317;SDS011;4196;48.926;8.964;2022-11-21T03:23:20;1.63;;;1.53;;
8317;SDS011;4196;48.926;8.964;2022-11-21T03:26:06;2.17;;;1.33;;
8317;SDS011;4196;48.926;8.964;2022-11-21T03:28:52;1.97;;;0.40;;
8317;SDS011;4196;48.926;8.964;2022-11-21T03:31:38;0.30;;;0.30;;
8317;SDS011;4196;48.926;8.964;2022-11-21T03:34:25;0.87;;;0.87;;
8317;SDS011;4196;48.926;8.964;2022-11-21T03:37:12;0.40;;;0.40;;
8317;SDS011;4196;48.926;8.964;2022-11-21T03:39:59;0.57;;;0.57;;
8317;SDS011;4196;48.926;8.964;2022-11-21T03:42:45;0.57;;;0.33;;
8317;SDS011;4196;48.926;8.964;2022-11-21T03:45:31;0.40;;;0.40;;
8317;SDS011;4196;48.926;8.964;2022-11-21T03:48:17;1.00;;;0.50;;
8317;SDS011;4196;48.926;8.964;2022-11-21T03:51:04;0.50;;;0.50;;
8317;SDS011;4196;48.926;8.964;2022-11-21T03:53:50;0.33;;;0.33;;
8317;SDS011;4196;48.926;8.964;2022-11-21T03:56:36;0.73;;;0.73;;
8317;SDS011;4196;48.926;8.964;2022-11-21T03:59:24;0.73;;;0.70;;
8317;SDS011;4196;48.926;8.964;2022-11-21T04:02:11;0.63;;;0.63;;
8317;SDS011;4196;48.926;8.964;2022-11-21T04:04:57;0.57;;;0.40;;
8317;SDS011;4196;48.926;8.964;2022-11-21T04:07:44;2.63;;;0.83;;
8317;SDS011;4196;48.926;8.964;2022-11-21T04:10:31;1.63;;;0.70;;
8317;SDS011;4196;48.926;8.964;2022-11-21T04:13:17;1.27;;;0.90;;
8317;SDS011;4196;48.926;8.964;2022-11-21T04:16:05;1.70;;;0.83;;
8317;SDS011;4196;48.926;8.964;2022-11-21T04:18:52;3.57;;;1.27;;
8317;SDS011;4196;48.926;8.964;2022-11-21T04:21:38;2.37;;;1.50;;
8317;SDS011;4196;48.926;8.964;2022-11-21T04:24:24;1.43;;;0.93;;
8317;SDS011;4196;48.926;8.964;2022-11-21T04:27:12;1.13;;;0.80;;
8317;SDS011;4196;48.926;8.964;2022-11-21T04:29:58;1.30;;;1.20;;
8317;SDS011;4196;48.926;8.964;2022-11-21T04:32:44;1.43;;;0.90;;
8317;SDS011;4196;48.926;8.964;2022-11-21T04:35:32;1.77;;;0.60;;
8317;SDS011;4196;48.926;8.964;2022-11-21T04:38:18;0.97;;;0.80;;
8317;SDS011;4196;48.926;8.964;2022-11-21T04:41:05;0.70;;;0.70;;
8317;SDS011;4196;48.926;8.964;2022-11-21T04:43:51;2.17;;;0.80;;
8317;SDS011;4196;48.926;8.964;2022-11-21T04:46:38;1.27;;;0.90;;
8317;SDS011;4196;48.926;8.964;2022-11-21T04:49:24;0.80;;;0.70;;
8317;SDS011;4196;48.926;8.964;2022-11-21T04:52:11;3.23;;;0.97;;
8317;SDS011;4196;48.926;8.964;2022-11-21T04:54:57;2.17;;;0.70;;
8317;SDS011;4196;48.926;8.964;2022-11-21T04:57:44;2.43;;;1.20;;
8317;SDS011;4196;48.926;8.964;2022-11-21T05:00:30;1.30;;;1.17;;
8317;SDS011;4196;48.926;8.964;2022-11-21T05:03:16;0.90;;;0.90;;
8317;SDS011;4196;48.926;8.964;2022-11-21T05:06:03;1.43;;;1.10;;
8317;SDS011;4196;48.926;8.964;2022-11-21T05:08:49;1.70;;;1.40;;
8317;SDS011;4196;48.926;8.964;2022-11-21T05:11:39;1.83;;;1.30;;
8317;SDS011;4196;48.926;8.964;2022-11-21T05:14:44;1.63;;;1.30;;
8317;SDS011;4196;48.926;8.964;2022-11-21T05:17:30;2.20;;;1.60;;
8317;SDS011;4196;48.926;8.964;2022-11-21T05:20:16;3.47;;;1.23;;
8317;SDS011;4196;48.926;8.964;2022-11-21T05:23:03;1.20;;;1.10;;
8317;SDS011;4196;48.926;8.964;2022-11-21T05:25:49;1.50;;;1.40;;
8317;SDS011;4196;48.926;8.964;2022-11-21T05:28:36;1.67;;;1.10;;
8317;SDS011;4196;48.926;8.964;2022-11-21T05:31:22;4.53;;;1.37;;
8317;SDS011;4196;48.926;8.964;2022-11-21T05:34:09;3.87;;;1.40;;
8317;SDS011;4196;48.926;8.964;2022-11-21T05:36:55;1.53;;;1.43;;
8317;SDS011;4196;48.926;8.964;2022-11-21T05:39:44;1.13;;;1.07;;
8317;SDS011;4196;48.926;8.964;2022-11-21T05:42:31;1.33;;;1.20;;
8317;SDS011;4196;48.926;8.964;2022-11-21T05:45:36;3.63;;;1.50;;
8317;SDS011;4196;48.926;8.964;2022-11-21T05:48:22;3.97;;;2.10;;
8317;SDS011;4196;48.926;8.964;2022-11-21T05:51:08;3.10;;;1.30;;
8317;SDS011;4196;48.926;8.964;2022-11-21T05:53:55;2.67;;;1.80;;
8317;SDS011;4196;48.926;8.964;2022-11-21T05:56:41;6.83;;;1.43;;
8317;SDS011;4196;48.926;8.964;2022-11-21T05:59:28;2.07;;;1.33;;
8317;SDS011;4196;48.926;8.964;2022-11-21T06:02:14;1.70;;;1.30;;
8317;SDS011;4196;48.926;8.964;2022-11-21T06:05:19;3.20;;;1.53;;
8317;SDS011;4196;48.926;8.964;2022-11-21T06:08:06;3.20;;;0.77;;
8317;SDS011;4196;48.926;8.964;2022-11-21T06:10:52;1.70;;;1.20;;
8317;SDS011;4196;48.926;8.964;2022-11-21T06:13:39;4.20;;;1.07;;
8317;SDS011;4196;48.926;8.964;2022-11-21T06:16:25;1.73;;;1.20;;
8317;SDS011;4196;48.926;8.964;2022-11-21T06:19:12;2.47;;;1.20;;
8317;SDS011;4196;48.926;8.964;2022-11-21T06:21:58;2.57;;;1.53;;
8317;SDS011;4196;48.926;8.964;2022-11-21T06:24:44;2.70;;;1.30;;
8317;SDS011;4196;48.926;8.964;2022-11-21T06:27:31;3.07;;;2.03;;
8317;SDS011;4196;48.926;8.964;2022-11-21T06:30:17;2.03;;;1.63;;
8317;SDS011;4196;48.926;8.964;2022-11-21T06:33:07;2.33;;;1.60;;
8317;SDS011;4196;48.926;8.964;2022-11-21T06:35:53;3.70;;;1.40;;
8317;SDS011;4196;48.926;8.964;2022-11-21T06:38:40;4.17;;;1.60;;
8317;SDS011;4196;48.926;8.964;2022-11-21T06:41:27;6.27;;;1.50;;
8317;SDS011;4196;48.926;8.964;2022-11-21T06:44:17;8.37;;;2.10;;
8317;SDS011;4196;48.926;8.964;2022-11-21T06:47:05;2.30;;;1.90;;
8317;SDS011;4196;48.926;8.964;2022-11-21T06:49:51;3.63;;;1.33;;
8317;SDS011;4196;48.926;8.964;2022-11-21T06:52:37;3.47;;;1.53;;
8317;SDS011;4196;48.926;8.964;2022-11-21T06:55:24;4.60;;;1.60;;
8317;SDS011;4196;48.926;8.964;2022-11-21T06:58:12;3.53;;;1.80;;
8317;SDS011;4196;48.926;8.964;2022-11-21T07:01:02;2.97;;;1.70;;
8317;SDS011;4196;48.926;8.964;2022-11-21T07:03:51;5.77;;;2.23;;
8317;SDS011;4196;48.926;8.964;2022-11-21T07:06:37;4.10;;;2.10;;
8317;SDS011;4196;48.926;8.964;2022-11-21T07:09:24;2.53;;;1.10;;
8317;SDS011;4196;48.926;8.964;2022-11-21T07:12:19;5.93;;;2.10;;
8317;SDS011;4196;48.926;8.964;2022-11-21T07:15:24;3.47;;;2.10;;
8317;SDS011;4196;48.926;8.964;2022-11-21T07:18:10;8.73;;;2.17;;
8317;SDS011;4196;48.926;8.964;2022-11-21T07:20:58;3.87;;;2.17;;
8317;SDS011;4196;48.926;8.964;2022-11-21T07:23:45;1.97;;;1.60;;
8317;SDS011;4196;48.926;8.964;2022-11-21T07:26:31;8.23;;;2.17;;
8317;SDS011;4196;48.926;8.964;2022-11-21T07:29:18;8.40;;;3.20;;
8317;SDS011;4196;48.926;8.964;2022-11-21T07:32:04;4.97;;;2.37;;
8317;SDS011;4196;48.926;8.964;2022-11-21T07:34:51;5.23;;;2.73;;
8317;SDS011;4196;48.926;8.964;2022-11-21T07:37:37;2.50;;;1.70;;
8317;SDS011;4196;48.926;8.964;2022-11-21T07:40:24;5.07;;;1.60;;
8317;SDS011;4196;48.926;8.964;2022-11-21T07:43:11;2.73;;;1.40;;
8317;SDS011;4196;48.926;8.964;2022-11-21T07:45:57;2.43;;;1.90;;
8317;SDS011;4196;48.926;8.964;2022-11-21T07:48:43;4.07;;;2.07;;
8317;SDS011;4196;48.926;8.964;2022-11-21T07:51:30;5.43;;;3.13;;
8317;SDS011;4196;48.926;8.964;2022-11-21T07:54:16;3.70;;;1.57;;
8317;SDS011;4196;48.926;8.964;2022-11-21T07:57:02;2.13;;;1.57;;
8317;SDS011;4196;48.926;8.964;2022-11-21T07:59:48;3.73;;;2.03;;
8317;SDS011;4196;48.926;8.964;2022-11-21T08:02:35;6.03;;;1.60;;
8317;SDS011;4196;48.926;8.964;2022-11-21T08:05:21;5.47;;;2.07;;
8317;SDS011;4196;48.926;8.964;2022-11-21T08:08:08;3.63;;;1.33;;
8317;SDS011;4196;48.926;8.964;2022-11-21T08:10:56;1.40;;;1.30;;
8317;SDS011;4196;48.926;8.964;2022-11-21T08:13:42;2.57;;;1.40;;
8317;SDS011;4196;48.926;8.964;2022-11-21T08:16:29;4.57;;;3.07;;
8317;SDS011;4196;48.926;8.964;2022-11-21T08:19:18;4.60;;;2.10;;
8317;SDS011;4196;48.926;8.964;2022-11-21T08:22:04;8.83;;;1.87;;
8317;SDS011;4196;48.926;8.964;2022-11-21T08:24:50;4.20;;;2.07;;
8317;SDS011;4196;48.926;8.964;2022-11-21T08:27:39;2.50;;;1.70;;
8317;SDS011;4196;48.926;8.964;2022-11-21T08:30:25;12.60;;;3.17;;
8317;SDS011;4196;48.926;8.964;2022-11-21T08:33:11;4.70;;;1.80;;
8317;SDS011;4196;48.926;8.964;2022-11-21T08:35:58;5.07;;;1.83;;
8317;SDS011;4196;48.926;8.964;2022-11-21T08:38:48;3.47;;;1.60;;
8317;SDS011;4196;48.926;8.964;2022-11-21T08:41:34;3.07;;;1.73;;
8317;SDS011;4196;48.926;8.964;2022-11-21T08:44:39;1.97;;;1.10;;
8317;SDS011;4196;48.926;8.964;2022-11-21T08:47:26;3.30;;;1.10;;
8317;SDS011;4196;48.926;8.964;2022-11-21T08:50:12;2.33;;;1.13;;
8317;SDS011;4196;48.926;8.964;2022-11-21T08:52:59;3.10;;;1.87;;
8317;SDS011;4196;48.926;8.964;2022-11-21T08:55:46;2.20;;;1.23;;
8317;SDS011;4196;48.926;8.964;2022-11-21T08:58:33;3.37;;;1.30;;
8317;SDS011;4196;48.926;8.964;2022-11-21T09:01:19;11.23;;;1.90;;
8317;SDS011;4196;48.926;8.964;2022-11-21T09:04:06;1.93;;;1.73;;
8317;SDS011;4196;48.926;8.964;2022-11-21T09:06:53;5.80;;;1.43;;
8317;SDS011;4196;48.926;8.964;2022-11-21T09:09:39;3.37;;;1.43;;
8317;SDS011;4196;48.926;8.964;2022-11-21T09:12:25;4.67;;;1.70;;
8317;SDS011;4196;48.926;8.964;2022-11-21T09:15:12;3.77;;;1.97;;
8317;SDS011;4196;48.926;8.964;2022-11-21T09:18:17;7.03;;;1.60;;
8317;SDS011;4196;48.926;8.964;2022-11-21T09:21:03;3.40;;;1.60;;
8317;SDS011;4196;48.926;8.964;2022-11-21T09:23:50;4.03;;;1.43;;
8317;SDS011;4196;48.926;8.964;2022-11-21T09:26:36;4.50;;;1.60;;
8317;SDS011;4196;48.926;8.964;2022-11-21T09:29:22;3.70;;;1.60;;
8317;SDS011;4196;48.926;8.964;2022-11-21T09:32:09;6.87;;;1.50;;
8317;SDS011;4196;48.926;8.964;2022-11-21T09:34:55;4.07;;;1.50;;
8317;SDS011;4196;48.926;8.964;2022-11-21T09:37:42;3.47;;;1.50;;
8317;SDS011;4196;48.926;8.964;2022-11-21T09:40:28;2.67;;;1.50;;
8317;SDS011;4196;48.926;8.964;2022-11-21T09:46:36;3.07;;;1.10;;
8317;SDS011;4196;48.926;8.964;2022-11-21T09:49:31;4.10;;;1.20;;
8317;SDS011;4196;48.926;8.964;2022-11-21T09:52:25;2.37;;;1.80;;
8317;SDS011;4196;48.926;8.964;2022-11-21T10:01:23;4.70;;;1.43;;
8317;SDS011;4196;48.926;8.964;2022-11-21T10:04:10;3.20;;;1.53;;
8317;SDS011;4196;48.926;8.964;2022-11-21T10:07:03;2.47;;;1.37;;
8317;SDS011;4196;48.926;8.964;2022-11-21T10:13:12;4.23;;;1.40;;
8317;SDS011;4196;48.926;8.964;2022-11-21T10:19:08;1.47;;;1.03;;
8317;SDS011;4196;48.926;8.964;2022-11-21T10:22:08;3.13;;;1.23;;
8317;SDS011;4196;48.926;8.964;2022-11-21T10:25:23;1.00;;;1.00;;
8317;SDS011;4196;48.926;8.964;2022-11-21T10:28:18;3.77;;;1.77;;
8317;SDS011;4196;48.926;8.964;2022-11-21T10:31:22;1.70;;;1.60;;
8317;SDS011;4196;48.926;8.964;2022-11-21T10:34:14;6.13;;;3.10;;
8317;SDS011;4196;48.926;8.964;2022-11-21T10:37:12;12.50;;;3.87;;
8317;SDS011;4196;48.926;8.964;2022-11-21T10:46:19;4.67;;;3.73;;
8317;SDS011;4196;48.926;8.964;2022-11-21T10:49:09;18.20;;;9.53;;
8317;SDS011;4196;48.926;8.964;2022-11-21T10:52:09;19.43;;;10.53;;
8317;SDS011;4196;48.926;8.964;2022-11-21T10:57:49;4.57;;;1.70;;
8317;SDS011;4196;48.926;8.964;2022-11-21T11:00:39;9.00;;;5.07;;
8317;SDS011;4196;48.926;8.964;2022-11-21T11:03:42;14.50;;;4.00;;
8317;SDS011;4196;48.926;8.964;2022-11-21T11:06:46;2.90;;;2.00;;
8317;SDS011;4196;48.926;8.964;2022-11-21T11:09:34;1.53;;;1.20;;
8317;SDS011;4196;48.926;8.964;2022-11-21T11:15:33;9.50;;;3.60;;
8317;SDS011;4196;48.926;8.964;2022-11-21T11:18:21;4.03;;;2.30;;
8317;SDS011;4196;48.926;8.964;2022-11-21T11:27:00;5.70;;;1.80;;
8317;SDS011;4196;48.926;8.964;2022-11-21T11:29:48;3.77;;;1.40;;
8317;SDS011;4196;48.926;8.964;2022-11-21T11:32:38;2.93;;;1.50;;
8317;SDS011;4196;48.926;8.964;2022-11-21T11:35:25;3.03;;;1.63;;
8317;SDS011;4196;48.926;8.964;2022-11-21T11:38:17;3.40;;;1.77;;
8317;SDS011;4196;48.926;8.964;2022-11-21T11:41:12;8.40;;;4.23;;
8317;SDS011;4196;48.926;8.964;2022-11-21T11:45:05;7.30;;;2.13;;
8317;SDS011;4196;48.926;8.964;2022-11-21T11:48:17;2.30;;;1.90;;
8317;SDS011;4196;48.926;8.964;2022-11-21T11:51:08;2.23;;;1.63;;
8317;SDS011;4196;48.926;8.964;2022-11-21T11:54:13;6.20;;;1.90;;
8317;SDS011;4196;48.926;8.964;2022-11-21T11:57:03;2.07;;;1.27;;
8317;SDS011;4196;48.926;8.964;2022-11-21T11:59:51;2.73;;;1.30;;
8317;SDS011;4196;48.926;8.964;2022-11-21T12:02:59;4.97;;;1.60;;
8317;SDS011;4196;48.926;8.964;2022-11-21T12:09:09;3.33;;;1.30;;
8317;SDS011;4196;48.926;8.964;2022-11-21T12:12:04;2.10;;;1.50;;
8317;SDS011;4196;48.926;8.964;2022-11-21T12:21:16;3.47;;;1.63;;
8317;SDS011;4196;48.926;8.964;2022-11-21T12:24:03;3.20;;;1.50;;
8317;SDS011;4196;48.926;8.964;2022-11-21T12:26:53;2.53;;;1.20;;
8317;SDS011;4196;48.926;8.964;2022-11-21T12:30:40;3.30;;;1.50;;
8317;SDS011;4196;48.926;8.964;2022-11-21T12:33:30;1.50;;;1.33;;
8317;SDS011;4196;48.926;8.964;2022-11-21T12:39:48;1.47;;;1.30;;
8317;SDS011;4196;48.926;8.964;2022-11-21T12:42:39;1.97;;;1.67;;
8317;SDS011;4196;48.926;8.964;2022-11-21T12:45:35;7.57;;;1.77;;
8317;SDS011;4196;48.926;8.964;2022-11-21T12:48:34;1.50;;;1.20;;
8317;SDS011;4196;48.926;8.964;2022-11-21T12:52:00;2.07;;;1.43;;
8317;SDS011;4196;48.926;8.964;2022-11-21T12:58:26;2.03;;;1.17;;
8317;SDS011;4196;48.926;8.964;2022-11-21T13:04:28;1.50;;;0.97;;
8317;SDS011;4196;48.926;8.964;2022-11-21T13:07:18;4.37;;;2.07;;
8317;SDS011;4196;48.926;8.964;2022-11-21T13:10:10;2.63;;;1.20;;
8317;SDS011;4196;48.926;8.964;2022-11-21T13:15:54;2.43;;;1.30;;
8317;SDS011;4196;48.926;8.964;2022-11-21T13:18:47;7.33;;;2.33;;
8317;SDS011;4196;48.926;8.964;2022-11-21T13:21:42;3.10;;;1.83;;
8317;SDS011;4196;48.926;8.964;2022-11-21T13:27:34;5.17;;;1.30;;
8317;SDS011;4196;48.926;8.964;2022-11-21T13:30:25;3.77;;;1.33;;
8317;SDS011;4196;48.926;8.964;2022-11-21T13:33:32;4.53;;;2.13;;
8317;SDS011;4196;48.926;8.964;2022-11-21T13:42:04;1.93;;;1.60;;
8317;SDS011;4196;48.926;8.964;2022-11-21T13:48:33;2.87;;;1.03;;
8317;SDS011;4196;48.926;8.964;2022-11-21T13:58:08;4.83;;;1.60;;
8317;SDS011;4196;48.926;8.964;2022-11-21T14:07:28;3.57;;;1.50;;
8317;SDS011;4196;48.926;8.964;2022-11-21T14:13:18;1.37;;;1.20;;
8317;SDS011;4196;48.926;8.964;2022-11-21T14:16:20;4.20;;;1.70;;
8317;SDS011;4196;48.926;8.964;2022-11-21T14:19:19;3.03;;;1.40;;
8317;SDS011;4196;48.926;8.964;2022-11-21T14:22:50;3.23;;;1.30;;
8317;SDS011;4196;48.926;8.964;2022-11-21T14:28:50;6.47;;;2.07;;
8317;SDS011;4196;48.926;8.964;2022-11-21T14:31:44;3.20;;;1.30;;
8317;SDS011;4196;48.926;8.964;2022-11-21T14:34:32;2.80;;;1.63;;
8317;SDS011;4196;48.926;8.964;2022-11-21T14:37:19;4.10;;;1.80;;
8317;SDS011;4196;48.926;8.964;2022-11-21T14:40:09;4.23;;;1.70;;
8317;SDS011;4196;48.926;8.964;2022-11-21T14:42:57;6.70;;;2.50;;
8317;SDS011;4196;48.926;8.964;2022-11-21T14:45:48;7.50;;;3.00;;
8317;SDS011;4196;48.926;8.964;2022-11-21T14:48:35;4.93;;;3.10;;
8317;SDS011;4196;48.926;8.964;2022-11-21T14:51:23;4.27;;;1.80;;
8317;SDS011;4196;48.926;8.964;2022-11-21T14:54:14;2.33;;;1.00;;
8317;SDS011;4196;48.926;8.964;2022-11-21T14:57:07;2.57;;;1.40;;
8317;SDS011;4196;48.926;8.964;2022-11-21T15:00:02;2.37;;;1.20;;
8317;SDS011;4196;48.926;8.964;2022-11-21T15:02:52;4.57;;;1.50;;
8317;SDS011;4196;48.926;8.964;2022-11-21T15:05:40;4.00;;;1.67;;
8317;SDS011;4196;48.926;8.964;2022-11-21T15:08:46;4.40;;;1.67;;
8317;SDS011;4196;48.926;8.964;2022-11-21T15:14:57;3.63;;;1.80;;
8317;SDS011;4196;48.926;8.964;2022-11-21T15:18:05;2.83;;;1.80;;
8317;SDS011;4196;48.926;8.964;2022-11-21T15:21:13;4.97;;;1.90;;
8317;SDS011;4196;48.926;8.964;2022-11-21T15:24:14;12.03;;;2.07;;
8317;SDS011;4196;48.926;8.964;2022-11-21T15:27:23;2.93;;;1.93;;
8317;SDS011;4196;48.926;8.964;2022-11-21T15:30:20;3.70;;;2.30;;
8317;SDS011;4196;48.926;8.964;2022-11-21T15:33:18;6.10;;;1.97;;
8317;SDS011;4196;48.926;8.964;2022-11-21T15:36:12;4.27;;;2.10;;
8317;SDS011;4196;48.926;8.964;2022-11-21T15:41:45;10.27;;;4.27;;
8317;SDS011;4196;48.926;8.964;2022-11-21T15:44:32;4.73;;;2.50;;
8317;SDS011;4196;48.926;8.964;2022-11-21T15:47:18;5.53;;;2.27;;
8317;SDS011;4196;48.926;8.964;2022-11-21T15:50:05;26.23;;;4.97;;
8317;SDS011;4196;48.926;8.964;2022-11-21T15:52:52;6.70;;;3.40;;
8317;SDS011;4196;48.926;8.964;2022-11-21T15:55:38;8.97;;;3.07;;
8317;SDS011;4196;48.926;8.964;2022-11-21T15:58:25;6.13;;;2.50;;
8317;SDS011;4196;48.926;8.964;2022-11-21T16:01:21;7.77;;;2.87;;
8317;SDS011;4196;48.926;8.964;2022-11-21T16:04:09;4.63;;;2.33;;
8317;SDS011;4196;48.926;8.964;2022-11-21T16:06:57;4.30;;;2.30;;
8317;SDS011;4196;48.926;8.964;2022-11-21T16:09:43;9.00;;;2.83;;
8317;SDS011;4196;48.926;8.964;2022-11-21T16:12:31;3.47;;;2.27;;
8317;SDS011;4196;48.926;8.964;2022-11-21T16:15:17;4.27;;;2.30;;
8317;SDS011;4196;48.926;8.964;2022-11-21T16:18:03;3.13;;;2.10;;
8317;SDS011;4196;48.926;8.964;2022-11-21T16:20:50;3.63;;;3.30;;
8317;SDS011;4196;48.926;8.964;2022-11-21T16:23:36;5.57;;;2.63;;
8317;SDS011;4196;48.926;8.964;2022-11-21T16:26:23;8.90;;;4.17;;
8317;SDS011;4196;48.926;8.964;2022-11-21T16:29:13;4.23;;;2.83;;
8317;SDS011;4196;48.926;8.964;2022-11-21T16:32:00;3.40;;;2.20;;
8317;SDS011;4196;48.926;8.964;2022-11-21T16:34:46;4.83;;;2.80;;
8317;SDS011;4196;48.926;8.964;2022-11-21T16:37:32;8.17;;;3.30;;
8317;SDS011;4196;48.926;8.964;2022-11-21T16:40:19;5.20;;;3.33;;
8317;SDS011;4196;48.926;8.964;2022-11-21T16:43:06;6.97;;;2.83;;
8317;SDS011;4196;48.926;8.964;2022-11-21T16:45:55;5.03;;;2.80;;
8317;SDS011;4196;48.926;8.964;2022-11-21T16:48:57;5.67;;;3.00;;
8317;SDS011;4196;48.926;8.964;2022-11-21T16:51:45;9.03;;;3.10;;
8317;SDS011;4196;48.926;8.964;2022-11-21T16:54:31;8.93;;;4.17;;
8317;SDS011;4196;48.926;8.964;2022-11-21T16:57:18;5.13;;;3.27;;
8317;SDS011;4196;48.926;8.964;2022-11-21T17:00:04;6.00;;;3.70;;
8317;SDS011;4196;48.926;8.964;2022-11-21T17:02:51;10.57;;;4.20;;
8317;SDS011;4196;48.926;8.964;2022-11-21T17:05:38;7.27;;;4.97;;
8317;SDS011;4196;48.926;8.964;2022-11-21T17:08:28;9.00;;;5.70;;
8317;SDS011;4196;48.926;8.964;2022-11-21T17:14:02;7.13;;;3.97;;
8317;SDS011;4196;48.926;8.964;2022-11-21T17:16:50;6.40;;;4.37;;
8317;SDS011;4196;48.926;8.964;2022-11-21T17:19:36;7.83;;;3.77;;
8317;SDS011;4196;48.926;8.964;2022-11-21T17:22:22;7.80;;;3.53;;
8317;SDS011;4196;48.926;8.964;2022-11-21T17:25:10;8.17;;;4.23;;
8317;SDS011;4196;48.926;8.964;2022-11-21T17:27:56;5.73;;;3.83;;
8317;SDS011;4196;48.926;8.964;2022-11-21T17:30:43;5.00;;;3.20;;
8317;SDS011;4196;48.926;8.964;2022-11-21T17:33:29;9.30;;;4.43;;
8317;SDS011;4196;48.926;8.964;2022-11-21T17:36:16;9.50;;;4.20;;
8317;SDS011;4196;48.926;8.964;2022-11-21T17:39:05;11.90;;;4.77;;
8317;SDS011;4196;48.926;8.964;2022-11-21T17:41:52;10.10;;;3.83;;
8317;SDS011;4196;48.926;8.964;2022-11-21T17:44:39;8.53;;;3.60;;
8317;SDS011;4196;48.926;8.964;2022-11-21T17:47:25;6.73;;;3.90;;
8317;SDS011;4196;48.926;8.964;2022-11-21T17:50:12;9.63;;;3.77;;
8317;SDS011;4196;48.926;8.964;2022-11-21T17:52:58;12.03;;;4.63;;
8317;SDS011;4196;48.926;8.964;2022-11-21T17:55:47;19.80;;;5.10;;
8317;SDS011;4196;48.926;8.964;2022-11-21T17:58:35;14.77;;;6.03;;
8317;SDS011;4196;48.926;8.964;2022-11-21T18:01:21;12.97;;;6.17;;
8317;SDS011;4196;48.926;8.964;2022-11-21T18:04:08;10.60;;;5.83;;
8317;SDS011;4196;48.926;8.964;2022-11-21T18:07:00;13.17;;;6.07;;
8317;SDS011;4196;48.926;8.964;2022-11-21T18:09:47;7.17;;;3.63;;
8317;SDS011;4196;48.926;8.964;2022-11-21T18:12:33;11.57;;;4.63;;
8317;SDS011;4196;48.926;8.964;2022-11-21T18:15:19;7.90;;;4.07;;
8317;SDS011;4196;48.926;8.964;2022-11-21T18:18:06;8.63;;;4.00;;
8317;SDS011;4196;48.926;8.964;2022-11-21T18:20:52;8.13;;;4.40;;
8317;SDS011;4196;48.926;8.964;2022-11-21T18:23:38;7.70;;;4.80;;
8317;SDS011;4196;48.926;8.964;2022-11-21T18:26:25;9.80;;;4.00;;
8317;SDS011;4196;48.926;8.964;2022-11-21T18:29:14;7.33;;;4.20;;
8317;SDS011;4196;48.926;8.964;2022-11-21T18:32:20;10.57;;;4.60;;
8317;SDS011;4196;48.926;8.964;2022-11-21T18:35:06;7.57;;;4.80;;
8317;SDS011;4196;48.926;8.964;2022-11-21T18:37:53;9.60;;;4.40;;
8317;SDS011;4196;48.926;8.964;2022-11-21T18:40:40;10.63;;;5.03;;
8317;SDS011;4196;48.926;8.964;2022-11-21T18:43:27;8.60;;;4.73;;
8317;SDS011;4196;48.926;8.964;2022-11-21T18:46:13;11.23;;;5.83;;
8317;SDS011;4196;48.926;8.964;2022-11-21T18:49:00;10.77;;;5.10;;
8317;SDS011;4196;48.926;8.964;2022-11-21T18:51:51;5.47;;;3.73;;
8317;SDS011;4196;48.926;8.964;2022-11-21T18:54:38;8.40;;;4.87;;
8317;SDS011;4196;48.926;8.964;2022-11-21T18:57:25;8.30;;;4.40;;
8317;SDS011;4196;48.926;8.964;2022-11-21T19:00:11;9.83;;;7.37;;
8317;SDS011;4196;48.926;8.964;2022-11-21T19:02:58;11.57;;;6.27;;
8317;SDS011;4196;48.926;8.964;2022-11-21T19:05:44;5.57;;;4.57;;
8317;SDS011;4196;48.926;8.964;2022-11-21T19:08:31;4.70;;;2.77;;
8317;SDS011;4196;48.926;8.964;2022-11-21T19:11:18;6.23;;;3.00;;